Sete Barras, Brazil
Current Conditions -  °F | °C
As of 9:15 PM on Thursday 27 Nov 2014 (Local Time) from SBSP Reporting Station
Drizzle Drizzle  
Wind Chill: 66°   Ceiling: 500
Heat Index: 66°   Visibility: 5mi
Dew Point: 63°   Wind: 12mph
Humidity: 88%   Direction: 190°S
Pressure: 30.03"   Gusts: NA
Location:  24.38°S, 47.93°W
Report Text: SBSP 272315Z 19010KT 8000 -DZ BKN005 BKN009 19/17 Q1017
Loading
Personal Weather Stations






























Interactive Weather Map New forecast layout! Learn more

10-Day Weather Forecast

Advertisements
Track Severe Weather on mobile